Timeline UpdatesTrip UpdatesNews PostsPvt PostsTravel TipsAdmin PostsConv PostsFollowed PostsChat RequestsBlog PostsPNR Posts

Disclaimer
Search
 
 
Thu Apr 24, 2014 05:39:37 ISTHomeTrainsΣChainsAtlasPNRForumGalleryNewsFAQTripsMembersLoginFeedback
No Recent News for this Train
Other Trains in the News **new
Latest...
Will remain cancelled on 18.01.2013(Friday) and 19.01.2013(Saturday) due to Pre Non-Interlocking Work and Non-Interlocking Work of RRI at Asansol Station News Entry# 115118 Will remain cancelled on 20.01.2013(Sunday)
Thu Jan 17, 2013 (02:35PM)
⇐ Return Journey: Train# 53521

53522/Varanasi-Asansol Passenger (UnReserved)

Sep 11 2013 (1:38PM)
Change Departure Station:
Change Arrival Station:
Post a Train Travel TipPost a Train Travel Tip **new
Post a Comment/Question/Picture/VideoPost a Comment/Question/Picture/Video
Pantry/Catering
✕ NO Pantry Car
✕ NO Catering
RSA - Rake Sharing
Rake/Coach Composition
Loco
News    PNR    Forum    Time-Table    Availability    Fare Chart    Map    Arr/Dep History    Trips    Gallery    ΣChains    X/O    Timeline    
Travel Time: 16h 35m    78 halts    Distance: 483 km    Avg Speed: 29 km/hr
Type: Passenger
Zone: ER/Eastern
Departs @ 04:25 (Avg 20m late)
Platform# 1
SMTWTFS
Varanasi Junction/BSB 
Arrives @ 21:00 (Avg 1h 53m late)
Platform# ???
SMTWTFS
Asansol Junction/ASN 

78 halts. 87 intermediate Stations between Varanasi Junction and Asansol Junction

Show ALL intermediate Stations  Show Old Time-Table

#CodeStation NameX/OArrivesAvgDepartsAvgHaltPFDay#KmSpeedElevZoneAddress
1BSB»Varanasi Junction (9)»  -04:25+20110.02782mNRVaranasi, Uttar Pradesh
2KEIKashi (3)  04:37+2404:38+271m--15.32485mNRVaranasi, Uttar Pradesh
3VYNVyasnagar  04:51+2604:52+261m--110.61281mNRNational Highway 2, Uttar Pradesh
4MGSMughal Sarai Junction (8)X  05:20+3005:30+3810m--116.35383mECRMughalsarai 232101, Uttar Pradesh
5GAQGanj Khawaja  05:40+5305:42+562m--125.16479mECRChandauli Mjhwr, Uttar Pradesh
6CDMRChandauli MajhwarX  05:50+1:0105:52+1:062m--133.77280mECRNational Highway 2, Uttar Pradesh
7SYJSaidrajaX  05:59+1:0806:01+1:102m--142.17080mECRSaiyedraja, Uttar Pradesh
8KMSKaramnasaX  06:08+1:1106:10+1:162m--150.36278mECRNational Highway 2, Uttar Pradesh
9DCXDhanaichhaXO  06:16+1:1706:18+1:182m--156.54675mECRNational Highway 2, Bihar
10DGODurgautiX  06:25+1:1806:27+1:232m--161.92476mECRDistt Kaimur, Bihar
11BBUBhabua Road (4)  06:49+1:1006:51+1:122m--170.84780mECR06187-222222, Bihar
12MTGEMuthani  06:58+1:1207:00+1:172m--176.35983mECRNational Highway 2, Bihar
13PSEPusauliX  07:08+1:1907:10+1:232m--184.24586mECRDistt: Rohtas, Bihar
14KTQKudra (2)X  07:22+1:2107:24+1:242m--193.25992mECRKudra, Bihar
15KVDKhurmabad RoadX  07:31+1:2507:33+1:242m--1100.14193mECRKhurmabad, Bihar
16SSGShiu Sagar RoadXO  07:40+1:2607:42+1:282m--1104.94299mECRShiu Sagar Rd, Bihar
17KMGEKumahuXO  07:50+1:2707:52+1:312m--1110.536101mECRKamahu, Bihar
18SSMSasaram Junction (4)XO  08:05+1:2908:07+1:412m--1118.465111mECR06184-222051, Bihar
19KWDKarwandia  08:13+1:4508:15+1:512m--1124.957113mECRKarwandiya, Bihar
20PHEPahaleja HaltO  08:22+1:5108:24+1:512m--1131.624112mECRPahaleja, Bihar
21DOSDehri On Sone (6)O  08:35+1:4908:40+1:575m--1136.143114mECRRohtas(06184-253154), Bihar
22SEBSon Nagar Junction (4)  08:48+2:0008:50+2:042m21141.850110mECRBarun, Bihar
23CPBHChiraila  08:57+2:0408:59+2:042m21147.643104mECRBarun, Bihar
24AUBRAnugraha Narayan Road (4)X  09:06+2:0109:08+2:062m31152.745104mECR06186-285271, Bihar
25PESPhesar  09:20+2:0909:22+2:162m21161.639104mECRpheshar, Bihar
26BHKHBaghoi Kusa  09:29+2:1509:31+2:152m--1166.1998mECRbel Rd, Bihar
27JHNJakhim  10:17+1:3910:19+1:432m--1172.73893mECRbel Rd, Bihar
28DORDDeo Road  10:25+1:4310:27+1:432m--1176.424102mECRMaluk Bigha, Bihar
29RFJRafiGanj (4)X  10:45+1:3310:47+1:412m--1183.569102mECRRafiganj, Bihar
30IMGEIsmailpur  10:55+1:4310:57+1:442m--1192.859114mECRState Highway 69, Bihar
31GRRUGuraru  11:04+1:4511:06+1:462m21199.651114mECRGuraru, Bihar
32PRYParaiyaO  11:13+1:4811:15+1:502m--1205.633111mECRparaiya station Rd, Bihar
33KSTAKastha  11:28+1:4611:30+1:482m--1212.736113mECRGaya, Bihar
34GAYAGaya Junction (9)  11:44+1:5411:54+2:0210m21221.117117mECR0631-2220283, Bihar
35MPOManpur Junction  12:13+2:0412:15+2:092m--1226.4-113mECRGaya, Bihar
36BNFBandhuaX  12:17+2:1512:27+2:0810m--1233.665124mECRState Highway 70, Bihar
37TKNTankuppa  12:34+2:1012:36+2:142m--1241.252127mECRState Highway 70, Bihar
38BNSLBansinala Halt  12:43+2:1412:44+2:141m--1247.253135mECRBansinala, Bihar
39PRPPaharpurX  12:51+2:1412:52+2:171m--1253.554150mECRGaya, Bihar
40GAPGurpa  13:05+2:1613:06+2:221m--1265.129192mECRLodhwe, Bihar
41YGMYadugram Block Hut  13:13+2:2113:14+2:221m--1268.527210mECRYadugram Block Hut, Jharkhand
42NGYNath Ganj  13:28+2:2413:29+2:241m--1274.746284mECRMurli, Bihar
43DLWDilwaX  13:37+2:2313:38+2:251m--1280.930346mECRNational Highway 31, Bihar
44LBZLalbag Block Hut  13:47+2:2413:48+2:241m--1285.426389mECRState Highway 70, Bihar
45GJDGujhandiX  13:53+2:2613:54+2:301m--1287.550386mECRNational Highway 31, Jharkhand
46KQRKoderma Junction (7)  14:06+2:2914:07+2:341m--1297.528399mECR06534-222410 Koderma, Jharkhand
47LRBLarabad  14:17+2:3114:18+2:311m--1302.139393mECRJhumri Telaiya, Jharkhand
48HREHirodih  14:25+2:3114:26+2:331m--1306.752371mECRJhumri Telaiya, Jharkhand
49SMNDSarmatanr  14:35+2:3214:36+2:331m--1314.434351mECRKoderma, Jharkhand
50YDDYadudih  14:43+2:3514:44+2:351m--1318.455352mECRNational Highway 2, Jharkhand
51PSBParsabad (3)  14:50+2:3514:51+2:381m--1323.965346mECRNational Highway 2, Jharkhand
52DSMEDasaraX  14:57+2:3814:58+2:391m--1330.449342mECRSariya - Parsiya Road, Jharkhand
53CBHChaubeO  15:04+2:3915:06+2:402m--1335.314325mECRParsabad, Jharkhand
54KSHRKeshwari  15:27+2:2515:28+2:251m--1340.157313mECRMandramo, Jharkhand
55HZDHazaribagh Road (3)  15:34+2:2515:35+2:271m--1345.852330mECRHazaribagh, Jharkhand
56GRBHGarea Bihar  15:43-15:44-1m--1352.819315mECRSariya - Parsiya Rd, Jharkhand
57CCKChichaki  15:50+2:2415:51+2:261m--1354.715308mECRNational Highway 2, Jharkhand
58CDBChaudhribandhXO  16:10+2:2316:12+2:232m--1359.49314mECRMaipatoli, Jharkhand
59CEMEChegroXO  16:42+2:0016:43+2:001m--1363.739333mECRBeko, Jharkhand
60PNMEParasnath (5)  17:03+1:4617:08+1:435m--1376.765282mECRGiridih 06532-233419, Jharkhand
61NMGNimiaghat  17:15+1:4417:16+1:451m--1384.456268mECRNational Highway 2, Jharkhand
62BLMEBholldihX  17:22+1:4517:23+1:471m--1390.013241mECRGomoh, Jharkhand
63GMONetaji SC Bose Gomoh Junction (6)  17:45+1:3817:55+1:3910m--1394.852239mECRGomoh, Jharkhand
64MRQMatari  18:06+1:4118:07+1:411m--1404.253246mECRDhanbad, Jharkhand
65NPJENichitpur  18:13+1:4218:14+1:421m--1409.550224mECRKatras, Jharkhand
66TETTetulmari  18:21+1:4218:22+1:431m--1415.432225mECRTetulmari, Jharkhand
67BHNBhuli  18:32+1:4118:33+1:411m--1420.77230mECRKusunda, Jharkhand
68DHNDhanbad Junction (8)X  19:05+1:2119:15+1:2210m--1424.645235mECR2319801. Div. HQ ECR, Jharkhand
69DOKMDokra Halt (2)  19:22+1:2519:23+1:261m--1429.938211mECRDokra, Jharkhand
70PKAPradhankhunta Junction (3)X  19:29+1:2719:30+1:291m--1433.746202mECRDhanbad, Jharkhand
71CAMChhota Ambana (3)X  19:38+1:3419:39+1:351m--1439.890200mERDhanbad, Jharkhand
72KAOKalubathan (2)  19:45+1:3919:46+1:391m--1448.951195mERDhanbad, Jharkhand
73TNWThapar Nagar (2)X  19:51+1:4019:52+1:411m--1453.153144mERDhanbad, Jharkhand
74MMUMugma (3)  19:58+1:4219:59+1:431m--1458.456135mERNational Highway 2, Jharkhand
75KMMEKumardubi (2)X  20:04+1:4420:05+1:461m--1463.038135mERDhanbad - 828203(06540-222077), Jharkhand
76BRRBarakar (2)O  20:09+1:4720:10+1:481m--1465.649129mERDist. Bardhaman, West Bengal
77ULTKulti (3)X  20:14+1:5020:15+1:581m--1468.812148mERdist - bardhaman, West Bengal
78STNSitarampur Junction (5)X  20:40+1:4220:41+1:531m21474.037139mERG T Rd Before Asansol, West Bengal
79BCQBarachak Junction (4)  20:47+1:5620:48+1:571m--1477.725127mERdist - bardhaman, West Bengal
80ASN•Asansol Junction (7)•  21:00+1:53---1482.8-113mERDist - bardhaman, West Bengal
Scroll to Top
Scroll to Bottom